METAR Data
IDs: Format: Raw Decoded Include TAF

Data at: 0614 UTC 19 Aug 2019

KLIT 190553Z 00000KT 10SM CLR 24/23 A2997 RMK AO2 SLP147 T02440228 10261 20233 403440228 50005 $
KLIT 190453Z 00000KT 10SM CLR 24/23 A2997 RMK AO2 SLP148 T02390228 $
KLIT 190353Z 12003KT 10SM CLR 24/23 A2997 RMK AO2 SLP147 T02440228 $
KLIT 190253Z 00000KT 10SM CLR 24/22 A2995 RMK AO2 SLP142 T02390217 51031 $
KLIT 190153Z 10003KT 10SM FEW250 24/22 A2994 RMK AO2 SLP139 T02440217 $
KLIT 190053Z 01005KT 10SM FEW110 FEW180 SCT250 25/22 A2993 RMK AO2 PRESRR SLP133 PRESRR T02500217 $
KLIT 182353Z VRB03KT 10SM FEW110 BKN180 BKN220 26/22 A2986 RMK AO2 RAB14E27 PRESRR SLP110 P0000 60000 T02560217 10344 20233 55021 $
KLIT 182253Z 14004KT 10SM FEW060 FEW090 BKN110 BKN200 23/21 A2985 RMK AO2 RAB17E30 SLP108 PRESFR P0000 T02330211 $
KLIT 182153Z 25003KT 10SM FEW028 SCT030 BKN100 BKN200 24/20 A2991 RMK AO2 LTG DSNT SE-W RAE03 TSB26E29 SLP129 OCNL LTGICCG DSNT SE-S TS DSNT SE-S MOVD S CB DSNT SE-S MOVD S P0000 T02440200 $
KLIT 182135Z 23005KT 10SM FEW028 SCT030 BKN110 OVC200 24/20 A2992 RMK AO2 LTG DSNT SE-W RAE03 TSB26E29 OCNL LTGICCG DSNT SE-S TS DSNT SE-S MOVD S CB DSNT SE-S MOVD S P0000 T02440200 $
KLIT 182120Z 22009KT 10SM TS FEW028 SCT035CB BKN110 OVC200 25/21 A2993 RMK AO2 LTG DSNT SE AND S RAE03 FRQ LTGICCG SE-S-SW TS SE-S-SW MOV S CB SE-S-SW MOV S P0000 T02500206 $
KLIT 182101Z 22009KT 8SM -TSRA BKN035CB BKN110 BKN200 25/22 A2991 RMK AO2 LTG DSNT ALQDS FRQ LTGICCG TS E-S-W MOV SE CB E-S-W MOV SE P0000 T02500222 $
KLIT 182053Z 24011KT 8SM -TSRA BKN035CB BKN110 BKN200 26/22 A2992 RMK AO2 LTG DSNT ALQDS SLP132 FRQ LTGICCG TS ALQDS MOV SE CB ALQDS MOV SE P0000 60000 T02560222 55005 $
KLIT 182044Z 27013G25KT 8SM -TSRA BKN035CB BKN100 BKN120 27/22 A2994 RMK AO2 LTG DSNT ALQDS FRQ LTGICCG TS ALQDS MOV SE CB ALQDS MOV SE P0000 T02670217 $
KLIT 181953Z 33015G22KT 5SM -TSRA BKN035CB BKN090 BKN250 27/21 A2992 RMK AO2 LTG DSNT SW-NW RAB48 TSB16 SLP130 OCNL LTGICCG SW-NW TS SW-NW MOV E P0000 T02670206 $
KLIT 181916Z COR 28010G14KT 10SM TS SCT035CB BKN250 34/24 A2992 RMK AO2 LTG DSNT W-N TSB16 OCNL LTGICCG W-NW TS W-NW MOV E T03440239 $
KLIT 181853Z 20005KT 10SM SCT035 BKN250 33/24 A2993 RMK AO2 LTG DSNT E AND W AND NW SLP133 CB DSNT NW MOV SLOWLY E T03330244 $
KLIT 181753Z 24011G15KT 10SM SCT032 SCT250 32/24 A2994 RMK AO2 SLP137 TCU DSNT E-SE T03220239 10328 20233 58002 $
KLIT 181653Z 25007KT 10SM SCT025 SCT100 BKN250 31/24 A2995 RMK AO2 SLP142 TCU DSNT SE-S T03110244 $
KLIT 181553Z 25009KT 10SM SCT025 BKN130 BKN250 30/24 A2996 RMK AO2 SLP144 T03000239 $
KLIT 181453Z 25009KT 10SM FEW025 SCT130 SCT250 29/24 A2994 RMK AO2 SLP139 T02890239 $
KLIT 181353Z VRB05KT 10SM FEW025 SCT130 SCT250 27/23 A2994 RMK AO2 SLP136 T02670233
KLIT 181253Z 23004KT 10SM SCT130 SCT250 24/22 A2993 RMK AO2 SLP135 T02440222
KLIT 181153Z 20004KT 10SM FEW150 SCT250 23/22 A2991 RMK AO2 SLP128 T02330217 10256 20228 51006
KLIT 181053Z 20005KT 10SM FEW250 23/22 A2990 RMK AO2 SLP124 T02330217
KLIT 180953Z 20003KT 10SM FEW250 23/22 A2991 RMK AO2 SLP126 T02330217
KLIT 180853Z 18005KT 10SM FEW200 23/22 A2989 RMK AO2 SLP122 T02330217 56004
KLIT 180753Z 17003KT 10SM FEW200 24/22 A2989 RMK AO2 SLP122 T02390217
KLIT 180653Z 16005KT 10SM FEW200 24/22 A2990 RMK AO2 SLP124 T02440217
KLIT 180553Z 18005KT 10SM FEW200 25/22 A2991 RMK AO2 SLP126 T02500222 10322 20250 403500217 50004
KLIT 180453Z 16005KT 10SM SCT200 26/22 A2991 RMK AO2 SLP126 T02560222
KLIT 180353Z 16004KT 10SM SCT200 26/23 A2991 RMK AO2 SLP127 T02610228
KLIT 180253Z 14007KT 10SM SCT200 28/22 A2989 RMK AO2 SLP122 T02830222 53010
KLIT 180153Z 12006KT 10SM SCT200 28/22 A2988 RMK AO2 SLP118 T02830222
KLIT 180053Z 14005KT 10SM FEW200 30/23 A2987 RMK AO2 SLP114 T03000228
KLIT 172353Z 14008KT 10SM FEW050 32/22 A2986 RMK AO2 SLP111 T03220222 10350 20322 58008
KLIT 172253Z 15007KT 10SM FEW050 33/22 A2987 RMK AO2 SLP114 T03330217
KLIT 172153Z 14009KT 10SM SCT050 34/22 A2988 RMK AO2 SLP116 T03390217
KLIT 172053Z 17008KT 10SM SCT050 SCT250 34/21 A2988 RMK AO2 SLP119 T03440211 56021
KLIT 171953Z 14009KT 10SM SCT045 SCT250 34/23 A2990 RMK AO2 SLP124 T03390228
KLIT 171853Z 15007KT 10SM SCT045 34/23 A2992 RMK AO2 SLP132 T03390228